sensor_id;sensor_type;location;lat;lon;timestamp;P1;durP1;ratioP1;P2;durP2;ratioP2
39880;SDS011;25554;44.954;10.068;2023-03-01T00:01:08;33.05;;;18.67;;
39880;SDS011;25554;44.954;10.068;2023-03-01T00:03:36;31.00;;;18.48;;
39880;SDS011;25554;44.954;10.068;2023-03-01T00:06:03;30.25;;;18.95;;
39880;SDS011;25554;44.954;10.068;2023-03-01T00:08:30;29.65;;;18.25;;
39880;SDS011;25554;44.954;10.068;2023-03-01T00:11:02;30.55;;;19.27;;
39880;SDS011;25554;44.954;10.068;2023-03-01T00:13:53;35.58;;;17.80;;
39880;SDS011;25554;44.954;10.068;2023-03-01T00:16:23;35.28;;;18.73;;
39880;SDS011;25554;44.954;10.068;2023-03-01T00:18:51;31.58;;;17.05;;
39880;SDS011;25554;44.954;10.068;2023-03-01T00:21:18;31.40;;;19.42;;
39880;SDS011;25554;44.954;10.068;2023-03-01T00:23:47;32.25;;;18.73;;
39880;SDS011;25554;44.954;10.068;2023-03-01T00:26:14;32.50;;;18.23;;
39880;SDS011;25554;44.954;10.068;2023-03-01T00:28:42;31.90;;;17.70;;
39880;SDS011;25554;44.954;10.068;2023-03-01T00:31:10;30.45;;;18.13;;
39880;SDS011;25554;44.954;10.068;2023-03-01T00:33:39;31.42;;;17.42;;
39880;SDS011;25554;44.954;10.068;2023-03-01T00:36:06;30.38;;;17.63;;
39880;SDS011;25554;44.954;10.068;2023-03-01T00:38:35;33.65;;;19.50;;
39880;SDS011;25554;44.954;10.068;2023-03-01T00:41:06;28.65;;;17.58;;
39880;SDS011;25554;44.954;10.068;2023-03-01T00:43:34;31.98;;;18.95;;
39880;SDS011;25554;44.954;10.068;2023-03-01T00:46:08;33.42;;;19.80;;
39880;SDS011;25554;44.954;10.068;2023-03-01T00:48:36;30.83;;;18.60;;
39880;SDS011;25554;44.954;10.068;2023-03-01T00:51:10;34.95;;;18.98;;
39880;SDS011;25554;44.954;10.068;2023-03-01T00:53:42;29.67;;;18.42;;
39880;SDS011;25554;44.954;10.068;2023-03-01T00:56:09;27.35;;;18.00;;
39880;SDS011;25554;44.954;10.068;2023-03-01T00:58:37;27.65;;;17.00;;
39880;SDS011;25554;44.954;10.068;2023-03-01T01:01:11;29.75;;;17.65;;
39880;SDS011;25554;44.954;10.068;2023-03-01T01:03:52;34.80;;;18.83;;
39880;SDS011;25554;44.954;10.068;2023-03-01T01:06:25;30.25;;;17.00;;
39880;SDS011;25554;44.954;10.068;2023-03-01T01:08:54;29.58;;;17.20;;
39880;SDS011;25554;44.954;10.068;2023-03-01T01:11:22;28.98;;;16.48;;
39880;SDS011;25554;44.954;10.068;2023-03-01T01:13:50;31.20;;;18.63;;
39880;SDS011;25554;44.954;10.068;2023-03-01T01:16:17;30.10;;;18.58;;
39880;SDS011;25554;44.954;10.068;2023-03-01T01:18:45;31.13;;;17.15;;
39880;SDS011;25554;44.954;10.068;2023-03-01T01:21:13;31.50;;;16.60;;
39880;SDS011;25554;44.954;10.068;2023-03-01T01:23:41;30.20;;;16.25;;
39880;SDS011;25554;44.954;10.068;2023-03-01T01:26:15;28.13;;;16.92;;
39880;SDS011;25554;44.954;10.068;2023-03-01T01:28:43;27.63;;;17.02;;
39880;SDS011;25554;44.954;10.068;2023-03-01T01:31:10;30.92;;;16.70;;
39880;SDS011;25554;44.954;10.068;2023-03-01T01:33:37;30.25;;;16.67;;
39880;SDS011;25554;44.954;10.068;2023-03-01T01:36:04;28.50;;;16.63;;
39880;SDS011;25554;44.954;10.068;2023-03-01T01:38:31;29.83;;;17.23;;
39880;SDS011;25554;44.954;10.068;2023-03-01T01:40:58;28.92;;;16.73;;
39880;SDS011;25554;44.954;10.068;2023-03-01T01:43:26;27.88;;;16.05;;
39880;SDS011;25554;44.954;10.068;2023-03-01T01:45:55;27.98;;;16.55;;
39880;SDS011;25554;44.954;10.068;2023-03-01T01:48:37;29.92;;;17.08;;
39880;SDS011;25554;44.954;10.068;2023-03-01T01:51:09;26.63;;;15.75;;
39880;SDS011;25554;44.954;10.068;2023-03-01T01:53:40;28.35;;;15.95;;
39880;SDS011;25554;44.954;10.068;2023-03-01T01:56:08;30.05;;;16.90;;
39880;SDS011;25554;44.954;10.068;2023-03-01T01:58:37;36.15;;;18.30;;
39880;SDS011;25554;44.954;10.068;2023-03-01T02:01:05;33.53;;;18.45;;
39880;SDS011;25554;44.954;10.068;2023-03-01T02:03:32;31.95;;;18.63;;
39880;SDS011;25554;44.954;10.068;2023-03-01T02:06:06;37.33;;;19.63;;
39880;SDS011;25554;44.954;10.068;2023-03-01T02:08:55;31.08;;;17.30;;
39880;SDS011;25554;44.954;10.068;2023-03-01T02:11:25;31.73;;;17.88;;
39880;SDS011;25554;44.954;10.068;2023-03-01T02:17:41;29.23;;;17.30;;
39880;SDS011;25554;44.954;10.068;2023-03-01T02:22:57;30.05;;;16.67;;
39880;SDS011;25554;44.954;10.068;2023-03-01T02:25:40;30.25;;;17.75;;
39880;SDS011;25554;44.954;10.068;2023-03-01T02:28:40;31.95;;;17.45;;
39880;SDS011;25554;44.954;10.068;2023-03-01T02:31:09;33.10;;;17.63;;
39880;SDS011;25554;44.954;10.068;2023-03-01T02:33:55;32.25;;;17.35;;
39880;SDS011;25554;44.954;10.068;2023-03-01T02:36:23;37.95;;;18.52;;
39880;SDS011;25554;44.954;10.068;2023-03-01T02:38:53;36.25;;;19.15;;
39880;SDS011;25554;44.954;10.068;2023-03-01T02:41:26;33.13;;;18.10;;
39880;SDS011;25554;44.954;10.068;2023-03-01T02:43:56;37.40;;;18.58;;
39880;SDS011;25554;44.954;10.068;2023-03-01T02:46:24;33.20;;;16.77;;
39880;SDS011;25554;44.954;10.068;2023-03-01T02:48:56;35.20;;;17.35;;
39880;SDS011;25554;44.954;10.068;2023-03-01T02:51:42;32.40;;;16.83;;
39880;SDS011;25554;44.954;10.068;2023-03-01T02:54:40;31.00;;;17.02;;
39880;SDS011;25554;44.954;10.068;2023-03-01T02:57:16;30.83;;;17.73;;
39880;SDS011;25554;44.954;10.068;2023-03-01T02:59:43;33.83;;;17.40;;
39880;SDS011;25554;44.954;10.068;2023-03-01T03:02:20;30.98;;;17.33;;
39880;SDS011;25554;44.954;10.068;2023-03-01T03:05:21;33.53;;;17.98;;
39880;SDS011;25554;44.954;10.068;2023-03-01T03:07:57;29.40;;;16.63;;
39880;SDS011;25554;44.954;10.068;2023-03-01T03:10:35;28.25;;;15.77;;
39880;SDS011;25554;44.954;10.068;2023-03-01T03:13:09;30.02;;;17.50;;
39880;SDS011;25554;44.954;10.068;2023-03-01T03:15:37;30.80;;;17.00;;
39880;SDS011;25554;44.954;10.068;2023-03-01T03:18:05;32.95;;;18.45;;
39880;SDS011;25554;44.954;10.068;2023-03-01T03:20:34;34.15;;;18.23;;
39880;SDS011;25554;44.954;10.068;2023-03-01T03:23:01;35.03;;;17.25;;
39880;SDS011;25554;44.954;10.068;2023-03-01T03:25:28;33.78;;;17.65;;
39880;SDS011;25554;44.954;10.068;2023-03-01T03:27:55;35.38;;;16.77;;
39880;SDS011;25554;44.954;10.068;2023-03-01T03:30:24;31.85;;;18.30;;
39880;SDS011;25554;44.954;10.068;2023-03-01T03:32:52;30.02;;;17.08;;
39880;SDS011;25554;44.954;10.068;2023-03-01T03:35:20;34.33;;;17.45;;
39880;SDS011;25554;44.954;10.068;2023-03-01T03:37:57;28.70;;;16.85;;
39880;SDS011;25554;44.954;10.068;2023-03-01T03:40:47;30.05;;;16.52;;
39880;SDS011;25554;44.954;10.068;2023-03-01T03:43:19;30.23;;;16.25;;
39880;SDS011;25554;44.954;10.068;2023-03-01T03:45:50;37.22;;;17.08;;
39880;SDS011;25554;44.954;10.068;2023-03-01T03:48:17;30.33;;;17.52;;
39880;SDS011;25554;44.954;10.068;2023-03-01T03:50:47;30.65;;;17.02;;
39880;SDS011;25554;44.954;10.068;2023-03-01T03:53:18;28.10;;;16.42;;
39880;SDS011;25554;44.954;10.068;2023-03-01T03:55:45;31.83;;;18.02;;
39880;SDS011;25554;44.954;10.068;2023-03-01T03:58:15;33.47;;;17.92;;
39880;SDS011;25554;44.954;10.068;2023-03-01T04:00:42;34.50;;;16.05;;
39880;SDS011;25554;44.954;10.068;2023-03-01T04:03:11;29.15;;;16.08;;
39880;SDS011;25554;44.954;10.068;2023-03-01T04:05:39;32.65;;;17.00;;
39880;SDS011;25554;44.954;10.068;2023-03-01T04:08:06;28.30;;;16.65;;
39880;SDS011;25554;44.954;10.068;2023-03-01T04:10:37;34.97;;;16.70;;
39880;SDS011;25554;44.954;10.068;2023-03-01T04:13:12;29.42;;;16.23;;
39880;SDS011;25554;44.954;10.068;2023-03-01T04:15:40;30.08;;;16.00;;
39880;SDS011;25554;44.954;10.068;2023-03-01T04:18:08;29.55;;;17.25;;
39880;SDS011;25554;44.954;10.068;2023-03-01T04:20:38;29.20;;;15.93;;
39880;SDS011;25554;44.954;10.068;2023-03-01T04:23:06;27.80;;;15.13;;
39880;SDS011;25554;44.954;10.068;2023-03-01T04:28:26;32.22;;;16.40;;
39880;SDS011;25554;44.954;10.068;2023-03-01T04:31:02;26.55;;;15.40;;
39880;SDS011;25554;44.954;10.068;2023-03-01T04:33:43;29.92;;;16.10;;
39880;SDS011;25554;44.954;10.068;2023-03-01T04:36:14;28.90;;;15.05;;
39880;SDS011;25554;44.954;10.068;2023-03-01T04:38:42;30.70;;;16.15;;
39880;SDS011;25554;44.954;10.068;2023-03-01T04:41:13;28.70;;;15.70;;
39880;SDS011;25554;44.954;10.068;2023-03-01T04:43:41;30.40;;;15.30;;
39880;SDS011;25554;44.954;10.068;2023-03-01T04:46:08;34.08;;;15.32;;
39880;SDS011;25554;44.954;10.068;2023-03-01T04:48:37;29.02;;;15.07;;
39880;SDS011;25554;44.954;10.068;2023-03-01T04:51:05;34.20;;;15.07;;
39880;SDS011;25554;44.954;10.068;2023-03-01T04:53:31;32.92;;;15.15;;
39880;SDS011;25554;44.954;10.068;2023-03-01T04:55:58;28.23;;;14.70;;
39880;SDS011;25554;44.954;10.068;2023-03-01T04:58:25;35.70;;;15.70;;
39880;SDS011;25554;44.954;10.068;2023-03-01T05:00:53;22.27;;;13.80;;
39880;SDS011;25554;44.954;10.068;2023-03-01T05:03:19;27.40;;;14.23;;
39880;SDS011;25554;44.954;10.068;2023-03-01T05:05:46;26.75;;;14.27;;
39880;SDS011;25554;44.954;10.068;2023-03-01T05:08:14;25.02;;;13.48;;
39880;SDS011;25554;44.954;10.068;2023-03-01T05:10:45;22.55;;;13.48;;
39880;SDS011;25554;44.954;10.068;2023-03-01T05:13:15;26.70;;;14.40;;
39880;SDS011;25554;44.954;10.068;2023-03-01T05:15:47;24.40;;;14.40;;
39880;SDS011;25554;44.954;10.068;2023-03-01T05:18:15;28.25;;;14.52;;
39880;SDS011;25554;44.954;10.068;2023-03-01T05:20:42;24.45;;;13.07;;
39880;SDS011;25554;44.954;10.068;2023-03-01T05:23:08;20.55;;;13.00;;
39880;SDS011;25554;44.954;10.068;2023-03-01T05:25:34;26.85;;;13.90;;
39880;SDS011;25554;44.954;10.068;2023-03-01T05:28:06;27.30;;;14.68;;
39880;SDS011;25554;44.954;10.068;2023-03-01T05:30:36;25.38;;;14.35;;
39880;SDS011;25554;44.954;10.068;2023-03-01T05:33:07;25.88;;;14.50;;
39880;SDS011;25554;44.954;10.068;2023-03-01T05:35:42;28.27;;;14.48;;
39880;SDS011;25554;44.954;10.068;2023-03-01T05:38:09;31.80;;;14.05;;
39880;SDS011;25554;44.954;10.068;2023-03-01T05:40:40;37.08;;;14.18;;
39880;SDS011;25554;44.954;10.068;2023-03-01T05:43:07;33.70;;;15.05;;
39880;SDS011;25554;44.954;10.068;2023-03-01T05:45:35;29.55;;;14.32;;
39880;SDS011;25554;44.954;10.068;2023-03-01T05:48:03;33.42;;;14.20;;
39880;SDS011;25554;44.954;10.068;2023-03-01T05:50:38;25.25;;;13.73;;
39880;SDS011;25554;44.954;10.068;2023-03-01T05:53:07;24.30;;;13.05;;
39880;SDS011;25554;44.954;10.068;2023-03-01T05:55:43;24.63;;;14.10;;
39880;SDS011;25554;44.954;10.068;2023-03-01T05:58:12;20.42;;;12.20;;
39880;SDS011;25554;44.954;10.068;2023-03-01T06:00:39;26.10;;;12.93;;
39880;SDS011;25554;44.954;10.068;2023-03-01T06:03:06;25.40;;;13.82;;
39880;SDS011;25554;44.954;10.068;2023-03-01T06:05:33;63.58;;;28.90;;
39880;SDS011;25554;44.954;10.068;2023-03-01T06:07:59;26.90;;;15.35;;
39880;SDS011;25554;44.954;10.068;2023-03-01T06:10:26;27.10;;;15.80;;
39880;SDS011;25554;44.954;10.068;2023-03-01T06:12:53;20.55;;;12.00;;
39880;SDS011;25554;44.954;10.068;2023-03-01T06:15:20;24.40;;;13.48;;
39880;SDS011;25554;44.954;10.068;2023-03-01T06:17:47;25.92;;;14.05;;
39880;SDS011;25554;44.954;10.068;2023-03-01T06:20:18;23.25;;;14.00;;
39880;SDS011;25554;44.954;10.068;2023-03-01T06:22:46;23.75;;;13.02;;
39880;SDS011;25554;44.954;10.068;2023-03-01T06:25:14;20.80;;;11.82;;
39880;SDS011;25554;44.954;10.068;2023-03-01T06:27:43;21.48;;;12.23;;
39880;SDS011;25554;44.954;10.068;2023-03-01T06:30:10;23.30;;;13.18;;
39880;SDS011;25554;44.954;10.068;2023-03-01T06:32:40;26.00;;;12.38;;
39880;SDS011;25554;44.954;10.068;2023-03-01T06:35:07;22.67;;;13.27;;
39880;SDS011;25554;44.954;10.068;2023-03-01T06:37:36;31.10;;;14.73;;
39880;SDS011;25554;44.954;10.068;2023-03-01T06:40:03;26.83;;;14.55;;
39880;SDS011;25554;44.954;10.068;2023-03-01T06:42:37;28.67;;;13.50;;
39880;SDS011;25554;44.954;10.068;2023-03-01T06:45:05;27.70;;;15.77;;
39880;SDS011;25554;44.954;10.068;2023-03-01T06:47:33;28.85;;;15.23;;
39880;SDS011;25554;44.954;10.068;2023-03-01T06:50:00;28.67;;;15.68;;
39880;SDS011;25554;44.954;10.068;2023-03-01T06:52:27;27.33;;;14.70;;
39880;SDS011;25554;44.954;10.068;2023-03-01T06:54:53;24.02;;;14.27;;
39880;SDS011;25554;44.954;10.068;2023-03-01T06:57:20;26.85;;;14.88;;
39880;SDS011;25554;44.954;10.068;2023-03-01T06:59:47;27.25;;;15.50;;
39880;SDS011;25554;44.954;10.068;2023-03-01T07:02:13;29.70;;;15.68;;
39880;SDS011;25554;44.954;10.068;2023-03-01T07:04:41;28.90;;;15.60;;
39880;SDS011;25554;44.954;10.068;2023-03-01T07:07:07;29.77;;;16.00;;
39880;SDS011;25554;44.954;10.068;2023-03-01T07:09:34;29.95;;;16.05;;
39880;SDS011;25554;44.954;10.068;2023-03-01T07:12:01;26.73;;;15.95;;
39880;SDS011;25554;44.954;10.068;2023-03-01T07:14:28;30.25;;;14.95;;
39880;SDS011;25554;44.954;10.068;2023-03-01T07:16:54;31.13;;;16.35;;
39880;SDS011;25554;44.954;10.068;2023-03-01T07:19:21;28.17;;;15.85;;
39880;SDS011;25554;44.954;10.068;2023-03-01T07:21:48;26.73;;;15.90;;
39880;SDS011;25554;44.954;10.068;2023-03-01T07:24:14;27.10;;;14.88;;
39880;SDS011;25554;44.954;10.068;2023-03-01T07:26:41;25.63;;;15.13;;
39880;SDS011;25554;44.954;10.068;2023-03-01T07:29:11;30.27;;;16.42;;
39880;SDS011;25554;44.954;10.068;2023-03-01T07:31:54;28.35;;;16.88;;
39880;SDS011;25554;44.954;10.068;2023-03-01T07:34:21;29.83;;;17.55;;
39880;SDS011;25554;44.954;10.068;2023-03-01T07:36:48;32.83;;;16.65;;
39880;SDS011;25554;44.954;10.068;2023-03-01T07:39:14;30.25;;;18.25;;
39880;SDS011;25554;44.954;10.068;2023-03-01T07:41:41;25.38;;;15.15;;
39880;SDS011;25554;44.954;10.068;2023-03-01T07:44:07;29.25;;;16.98;;
39880;SDS011;25554;44.954;10.068;2023-03-01T07:46:34;35.22;;;16.77;;
39880;SDS011;25554;44.954;10.068;2023-03-01T07:49:01;29.05;;;16.42;;
39880;SDS011;25554;44.954;10.068;2023-03-01T07:51:27;32.03;;;18.38;;
39880;SDS011;25554;44.954;10.068;2023-03-01T07:53:54;31.20;;;16.85;;
39880;SDS011;25554;44.954;10.068;2023-03-01T07:56:21;22.63;;;14.60;;
39880;SDS011;25554;44.954;10.068;2023-03-01T07:58:47;26.40;;;16.20;;
39880;SDS011;25554;44.954;10.068;2023-03-01T08:01:15;29.98;;;17.05;;
39880;SDS011;25554;44.954;10.068;2023-03-01T08:03:43;27.30;;;15.68;;
39880;SDS011;25554;44.954;10.068;2023-03-01T08:06:11;28.85;;;15.93;;
39880;SDS011;25554;44.954;10.068;2023-03-01T08:08:38;28.05;;;14.25;;
39880;SDS011;25554;44.954;10.068;2023-03-01T08:11:05;24.48;;;14.05;;
39880;SDS011;25554;44.954;10.068;2023-03-01T08:13:33;26.10;;;14.55;;
39880;SDS011;25554;44.954;10.068;2023-03-01T08:16:00;31.30;;;16.67;;
39880;SDS011;25554;44.954;10.068;2023-03-01T08:18:27;24.35;;;14.52;;
39880;SDS011;25554;44.954;10.068;2023-03-01T08:20:54;26.20;;;14.88;;
39880;SDS011;25554;44.954;10.068;2023-03-01T08:23:26;27.65;;;16.45;;
39880;SDS011;25554;44.954;10.068;2023-03-01T08:25:53;27.80;;;16.48;;
39880;SDS011;25554;44.954;10.068;2023-03-01T08:28:19;24.10;;;14.68;;
39880;SDS011;25554;44.954;10.068;2023-03-01T08:30:46;26.30;;;15.32;;
39880;SDS011;25554;44.954;10.068;2023-03-01T08:33:13;27.52;;;15.52;;
39880;SDS011;25554;44.954;10.068;2023-03-01T08:35:42;25.92;;;16.42;;
39880;SDS011;25554;44.954;10.068;2023-03-01T08:38:08;20.52;;;13.60;;
39880;SDS011;25554;44.954;10.068;2023-03-01T08:40:35;28.60;;;15.73;;
39880;SDS011;25554;44.954;10.068;2023-03-01T08:45:28;26.00;;;14.45;;
39880;SDS011;25554;44.954;10.068;2023-03-01T08:47:55;27.92;;;15.90;;
39880;SDS011;25554;44.954;10.068;2023-03-01T08:50:22;27.52;;;15.23;;
39880;SDS011;25554;44.954;10.068;2023-03-01T08:52:50;25.00;;;15.52;;
39880;SDS011;25554;44.954;10.068;2023-03-01T08:55:16;24.77;;;15.23;;
39880;SDS011;25554;44.954;10.068;2023-03-01T09:00:10;24.90;;;15.13;;
39880;SDS011;25554;44.954;10.068;2023-03-01T09:02:36;25.45;;;14.38;;
39880;SDS011;25554;44.954;10.068;2023-03-01T09:05:04;28.42;;;15.55;;
39880;SDS011;25554;44.954;10.068;2023-03-01T09:07:30;24.08;;;14.65;;
39880;SDS011;25554;44.954;10.068;2023-03-01T09:09:57;30.38;;;15.63;;
39880;SDS011;25554;44.954;10.068;2023-03-01T09:12:24;24.00;;;13.50;;
39880;SDS011;25554;44.954;10.068;2023-03-01T09:14:50;26.83;;;15.00;;
39880;SDS011;25554;44.954;10.068;2023-03-01T09:17:17;24.27;;;15.02;;
39880;SDS011;25554;44.954;10.068;2023-03-01T09:19:46;25.83;;;14.82;;
39880;SDS011;25554;44.954;10.068;2023-03-01T09:22:15;37.17;;;18.00;;
39880;SDS011;25554;44.954;10.068;2023-03-01T09:24:42;25.65;;;14.35;;
39880;SDS011;25554;44.954;10.068;2023-03-01T09:27:09;22.20;;;12.98;;
39880;SDS011;25554;44.954;10.068;2023-03-01T09:29:36;24.35;;;13.90;;
39880;SDS011;25554;44.954;10.068;2023-03-01T09:32:03;23.05;;;13.68;;
39880;SDS011;25554;44.954;10.068;2023-03-01T09:34:30;22.67;;;14.02;;
39880;SDS011;25554;44.954;10.068;2023-03-01T09:36:57;26.10;;;14.60;;
39880;SDS011;25554;44.954;10.068;2023-03-01T09:39:24;26.75;;;14.32;;
39880;SDS011;25554;44.954;10.068;2023-03-01T09:42:00;23.75;;;13.23;;
39880;SDS011;25554;44.954;10.068;2023-03-01T09:44:31;25.15;;;13.63;;
39880;SDS011;25554;44.954;10.068;2023-03-01T09:47:02;24.75;;;14.57;;
39880;SDS011;25554;44.954;10.068;2023-03-01T09:49:35;21.75;;;13.18;;
39880;SDS011;25554;44.954;10.068;2023-03-01T09:55:16;22.90;;;13.18;;
39880;SDS011;25554;44.954;10.068;2023-03-01T09:57:56;26.83;;;13.85;;
39880;SDS011;25554;44.954;10.068;2023-03-01T10:00:35;19.60;;;12.70;;
39880;SDS011;25554;44.954;10.068;2023-03-01T10:03:17;22.77;;;12.95;;
39880;SDS011;25554;44.954;10.068;2023-03-01T10:08:35;23.88;;;13.30;;
39880;SDS011;25554;44.954;10.068;2023-03-01T10:11:30;24.95;;;12.88;;
39880;SDS011;25554;44.954;10.068;2023-03-01T10:20:14;20.65;;;11.38;;
39880;SDS011;25554;44.954;10.068;2023-03-01T10:22:45;20.33;;;12.18;;
39880;SDS011;25554;44.954;10.068;2023-03-01T10:25:17;23.30;;;12.63;;
39880;SDS011;25554;44.954;10.068;2023-03-01T10:28:50;21.85;;;12.77;;
39880;SDS011;25554;44.954;10.068;2023-03-01T10:31:15;24.55;;;13.35;;
39880;SDS011;25554;44.954;10.068;2023-03-01T10:33:47;21.40;;;12.23;;
39880;SDS011;25554;44.954;10.068;2023-03-01T10:36:21;19.90;;;12.38;;
39880;SDS011;25554;44.954;10.068;2023-03-01T10:38:55;24.63;;;12.35;;
39880;SDS011;25554;44.954;10.068;2023-03-01T10:41:26;21.75;;;13.45;;
39880;SDS011;25554;44.954;10.068;2023-03-01T10:43:57;21.92;;;12.20;;
39880;SDS011;25554;44.954;10.068;2023-03-01T10:46:28;22.65;;;13.90;;
39880;SDS011;25554;44.954;10.068;2023-03-01T10:49:16;21.42;;;12.95;;
39880;SDS011;25554;44.954;10.068;2023-03-01T10:51:48;21.00;;;13.02;;
39880;SDS011;25554;44.954;10.068;2023-03-01T10:54:18;24.73;;;13.57;;
39880;SDS011;25554;44.954;10.068;2023-03-01T10:56:53;20.67;;;12.90;;
39880;SDS011;25554;44.954;10.068;2023-03-01T10:59:22;19.35;;;12.20;;
39880;SDS011;25554;44.954;10.068;2023-03-01T11:02:37;21.13;;;12.13;;
39880;SDS011;25554;44.954;10.068;2023-03-01T11:04:59;19.17;;;11.05;;
39880;SDS011;25554;44.954;10.068;2023-03-01T11:07:28;19.83;;;12.32;;
39880;SDS011;25554;44.954;10.068;2023-03-01T11:09:55;19.73;;;11.45;;
39880;SDS011;25554;44.954;10.068;2023-03-01T11:12:22;19.92;;;12.52;;
39880;SDS011;25554;44.954;10.068;2023-03-01T11:14:53;22.40;;;12.48;;
39880;SDS011;25554;44.954;10.068;2023-03-01T11:17:23;25.95;;;12.52;;
39880;SDS011;25554;44.954;10.068;2023-03-01T11:22:31;21.08;;;12.27;;
39880;SDS011;25554;44.954;10.068;2023-03-01T11:25:00;21.45;;;11.68;;
39880;SDS011;25554;44.954;10.068;2023-03-01T11:27:28;20.50;;;12.18;;
39880;SDS011;25554;44.954;10.068;2023-03-01T11:34:55;21.45;;;11.75;;
39880;SDS011;25554;44.954;10.068;2023-03-01T11:37:40;19.90;;;10.73;;
39880;SDS011;25554;44.954;10.068;2023-03-01T11:40:26;19.17;;;12.02;;
39880;SDS011;25554;44.954;10.068;2023-03-01T11:50:47;24.83;;;12.75;;
39880;SDS011;25554;44.954;10.068;2023-03-01T11:53:23;18.45;;;11.57;;
39880;SDS011;25554;44.954;10.068;2023-03-01T11:56:31;21.98;;;11.82;;
39880;SDS011;25554;44.954;10.068;2023-03-01T11:59:38;20.40;;;11.80;;
39880;SDS011;25554;44.954;10.068;2023-03-01T12:02:12;23.77;;;12.85;;
39880;SDS011;25554;44.954;10.068;2023-03-01T12:16:15;26.80;;;14.48;;
39880;SDS011;25554;44.954;10.068;2023-03-01T12:19:15;24.25;;;13.73;;
39880;SDS011;25554;44.954;10.068;2023-03-01T12:43:54;19.45;;;11.20;;
39880;SDS011;25554;44.954;10.068;2023-03-01T12:46:45;19.95;;;11.80;;
39880;SDS011;25554;44.954;10.068;2023-03-01T12:49:48;22.02;;;11.93;;
39880;SDS011;25554;44.954;10.068;2023-03-01T12:52:40;20.85;;;12.40;;
39880;SDS011;25554;44.954;10.068;2023-03-01T12:55:24;21.63;;;12.43;;
39880;SDS011;25554;44.954;10.068;2023-03-01T13:03:28;19.02;;;11.73;;
39880;SDS011;25554;44.954;10.068;2023-03-01T13:06:32;21.83;;;13.05;;
39880;SDS011;25554;44.954;10.068;2023-03-01T13:11:32;22.52;;;13.35;;
39880;SDS011;25554;44.954;10.068;2023-03-01T13:16:51;23.17;;;13.63;;
39880;SDS011;25554;44.954;10.068;2023-03-01T13:19:19;20.20;;;12.43;;
39880;SDS011;25554;44.954;10.068;2023-03-01T13:21:48;27.38;;;13.85;;
39880;SDS011;25554;44.954;10.068;2023-03-01T13:24:23;23.88;;;13.23;;
39880;SDS011;25554;44.954;10.068;2023-03-01T13:29:52;20.33;;;12.50;;
39880;SDS011;25554;44.954;10.068;2023-03-01T13:40:03;24.73;;;12.68;;
39880;SDS011;25554;44.954;10.068;2023-03-01T13:42:51;25.58;;;14.23;;
39880;SDS011;25554;44.954;10.068;2023-03-01T13:47:46;24.38;;;13.75;;
39880;SDS011;25554;44.954;10.068;2023-03-01T13:50:16;21.13;;;12.93;;
39880;SDS011;25554;44.954;10.068;2023-03-01T13:52:48;25.02;;;13.88;;
39880;SDS011;25554;44.954;10.068;2023-03-01T13:58:45;22.98;;;11.82;;
39880;SDS011;25554;44.954;10.068;2023-03-01T14:01:38;25.83;;;13.43;;
39880;SDS011;25554;44.954;10.068;2023-03-01T14:09:48;24.27;;;14.23;;
39880;SDS011;25554;44.954;10.068;2023-03-01T14:17:52;26.02;;;13.57;;
39880;SDS011;25554;44.954;10.068;2023-03-01T14:20:29;38.80;;;18.38;;
39880;SDS011;25554;44.954;10.068;2023-03-01T14:22:58;27.67;;;14.32;;
39880;SDS011;25554;44.954;10.068;2023-03-01T14:25:28;29.42;;;15.73;;
39880;SDS011;25554;44.954;10.068;2023-03-01T14:27:56;25.35;;;14.02;;
39880;SDS011;25554;44.954;10.068;2023-03-01T14:30:48;25.05;;;13.73;;
39880;SDS011;25554;44.954;10.068;2023-03-01T14:33:32;23.60;;;13.65;;
39880;SDS011;25554;44.954;10.068;2023-03-01T14:38:40;29.95;;;15.27;;
39880;SDS011;25554;44.954;10.068;2023-03-01T14:43:43;23.27;;;12.90;;
39880;SDS011;25554;44.954;10.068;2023-03-01T14:46:34;28.83;;;14.95;;
39880;SDS011;25554;44.954;10.068;2023-03-01T14:51:34;27.73;;;13.73;;
39880;SDS011;25554;44.954;10.068;2023-03-01T14:54:11;26.20;;;13.65;;
39880;SDS011;25554;44.954;10.068;2023-03-01T14:57:00;25.67;;;13.55;;
39880;SDS011;25554;44.954;10.068;2023-03-01T14:59:27;25.42;;;13.52;;
39880;SDS011;25554;44.954;10.068;2023-03-01T15:02:00;25.58;;;13.73;;
39880;SDS011;25554;44.954;10.068;2023-03-01T15:04:29;28.25;;;14.38;;
39880;SDS011;25554;44.954;10.068;2023-03-01T15:06:57;24.90;;;12.95;;
39880;SDS011;25554;44.954;10.068;2023-03-01T15:09:30;24.23;;;13.18;;
39880;SDS011;25554;44.954;10.068;2023-03-01T15:12:00;24.20;;;13.88;;
39880;SDS011;25554;44.954;10.068;2023-03-01T15:17:41;23.92;;;13.68;;
39880;SDS011;25554;44.954;10.068;2023-03-01T15:20:03;26.13;;;13.13;;
39880;SDS011;25554;44.954;10.068;2023-03-01T15:22:32;21.77;;;12.75;;
39880;SDS011;25554;44.954;10.068;2023-03-01T15:24:59;24.95;;;13.98;;
39880;SDS011;25554;44.954;10.068;2023-03-01T15:27:26;23.58;;;13.95;;
39880;SDS011;25554;44.954;10.068;2023-03-01T15:29:53;30.35;;;15.38;;
39880;SDS011;25554;44.954;10.068;2023-03-01T15:32:27;23.63;;;13.73;;
39880;SDS011;25554;44.954;10.068;2023-03-01T15:34:59;26.50;;;12.98;;
39880;SDS011;25554;44.954;10.068;2023-03-01T15:37:47;23.60;;;13.55;;
39880;SDS011;25554;44.954;10.068;2023-03-01T15:40:17;23.35;;;13.35;;
39880;SDS011;25554;44.954;10.068;2023-03-01T15:42:46;24.77;;;14.48;;
39880;SDS011;25554;44.954;10.068;2023-03-01T15:47:52;26.60;;;15.13;;
39880;SDS011;25554;44.954;10.068;2023-03-01T15:50:27;25.83;;;14.85;;
39880;SDS011;25554;44.954;10.068;2023-03-01T15:52:55;24.40;;;14.13;;
39880;SDS011;25554;44.954;10.068;2023-03-01T15:55:24;27.20;;;15.38;;
39880;SDS011;25554;44.954;10.068;2023-03-01T15:58:40;26.05;;;14.45;;
39880;SDS011;25554;44.954;10.068;2023-03-01T16:00:44;25.77;;;14.63;;
39880;SDS011;25554;44.954;10.068;2023-03-01T16:03:11;29.08;;;16.15;;
39880;SDS011;25554;44.954;10.068;2023-03-01T16:05:38;29.27;;;15.90;;
39880;SDS011;25554;44.954;10.068;2023-03-01T16:08:05;24.55;;;14.18;;
39880;SDS011;25554;44.954;10.068;2023-03-01T16:10:32;26.65;;;14.80;;
39880;SDS011;25554;44.954;10.068;2023-03-01T16:12:59;24.98;;;15.18;;
39880;SDS011;25554;44.954;10.068;2023-03-01T16:15:27;29.95;;;15.82;;
39880;SDS011;25554;44.954;10.068;2023-03-01T16:17:54;28.98;;;17.45;;
39880;SDS011;25554;44.954;10.068;2023-03-01T16:20:23;29.08;;;15.40;;
39880;SDS011;25554;44.954;10.068;2023-03-01T16:22:51;28.33;;;16.02;;
39880;SDS011;25554;44.954;10.068;2023-03-01T16:25:18;29.58;;;15.80;;
39880;SDS011;25554;44.954;10.068;2023-03-01T16:27:46;26.85;;;14.57;;
39880;SDS011;25554;44.954;10.068;2023-03-01T16:30:18;28.60;;;15.40;;
39880;SDS011;25554;44.954;10.068;2023-03-01T16:32:47;27.60;;;15.27;;
39880;SDS011;25554;44.954;10.068;2023-03-01T16:35:15;30.05;;;16.73;;
39880;SDS011;25554;44.954;10.068;2023-03-01T16:37:43;26.70;;;14.93;;
39880;SDS011;25554;44.954;10.068;2023-03-01T16:40:20;28.60;;;15.68;;